createdAt,value
2022-09-20T14:45:15.829Z,100080.51
2022-09-20T14:47:44.746Z,100083.8
2022-09-20T14:50:18.558Z,100088.62
2022-09-20T14:52:33.537Z,100088.49
2022-09-20T14:54:48.429Z,100084.29
2022-09-20T14:56:59.085Z,100081.74
2022-09-20T14:59:12.419Z,100082.41
2022-09-20T15:01:29.519Z,100083.71
2022-09-20T15:03:37.809Z,100087.03
2022-09-20T15:05:45.199Z,100089.4
2022-09-20T15:07:54.517Z,100093.05
2022-09-20T15:10:05.796Z,100095.42
2022-09-20T15:12:13.273Z,100110.98
2022-09-20T15:14:26.173Z,100115.78
2022-09-20T15:16:42.437Z,100115.05
2022-09-20T15:18:49.276Z,100122.78
2022-09-20T15:20:55.766Z,100134.56
2022-09-20T15:23:02.541Z,100131.53
2022-09-20T15:25:19.088Z,100128.55
2022-09-20T15:27:41.853Z,100132.25
2022-09-20T15:29:49.791Z,100126.68
2022-09-20T15:31:56.962Z,100129.69
2022-09-20T15:34:04.441Z,100138.09
2022-09-20T15:36:43.806Z,100142.61
2022-09-20T15:38:51.402Z,100141.6
2022-09-20T15:41:01.601Z,100138.42
2022-09-20T15:43:07.985Z,100145.78
2022-09-20T15:45:14.444Z,100145.94
2022-09-20T15:47:20.995Z,100151.3
2022-09-20T15:49:27.378Z,100151.23
2022-09-20T15:51:34.280Z,100157.56
2022-09-20T15:53:40.557Z,100157.04
2022-09-20T15:55:47.099Z,100163.02
2022-09-20T15:57:53.816Z,100170.23
2022-09-20T16:00:00.917Z,100165.3
2022-09-20T16:02:07.998Z,100166.91
2022-09-20T16:04:14.667Z,100174.83
2022-09-20T16:06:21.197Z,100182.55
2022-09-20T16:08:27.966Z,100188.93
2022-09-20T16:10:34.594Z,100191.59
2022-09-20T16:12:41.190Z,100194.95
2022-09-20T16:14:47.723Z,100196.09
2022-09-20T16:16:53.902Z,100197.48
2022-09-20T17:28:25.508Z,100265.03
2022-09-20T19:07:41.467Z,100340.58
2022-09-20T19:10:05.059Z,100336.78
2022-09-20T19:12:34.818Z,100339.3
2022-09-20T19:15:54.907Z,100345
2022-09-20T19:18:52.166Z,100344.18
2022-09-20T19:24:45.610Z,100348.69
2022-09-20T19:28:10.155Z,100350.9
2022-09-20T19:38:02.068Z,100358.09
2022-09-20T19:40:43.071Z,100361.3
2022-09-20T19:43:09.821Z,100364.05
2022-09-20T19:57:09.965Z,100366.59
2022-09-20T20:00:05.148Z,100366.75
2022-09-20T20:03:22.124Z,100368.8
2022-09-20T20:06:45.723Z,100367.58
2022-09-20T20:16:59.795Z,100378.56
2022-09-20T20:26:28.507Z,100376.8
2022-09-20T20:29:08.486Z,100381.72
2022-09-20T20:31:49.019Z,100380
2022-09-20T20:37:36.063Z,100381.13
2022-09-20T20:40:37.842Z,100390.16
2022-09-20T20:43:23.554Z,100385.67
2022-09-20T20:46:07.502Z,100389.17
2022-09-20T20:49:38.204Z,100393.59
2022-09-20T20:52:41.774Z,100388.69
2022-09-20T20:55:36.355Z,100390.3
2022-09-20T20:58:16.316Z,100386.18
2022-09-20T21:01:15.202Z,100389.54
2022-09-20T21:06:50.350Z,100390.7
2022-09-20T21:15:13.972Z,100394.99
2022-09-20T21:17:53.402Z,100392.75
2022-09-20T21:20:22.568Z,100398.47
2022-09-20T21:22:48.464Z,100403.23
2022-09-20T21:24:57.045Z,100397.67
2022-09-20T21:29:55.844Z,100392.45
2022-09-20T21:32:16.331Z,100395.44
2022-09-20T21:37:32.593Z,100397.1
2022-09-20T21:39:50.825Z,100400.13
2022-09-20T21:42:12.586Z,100400.3
2022-09-20T21:44:52.302Z,100400.73
2022-09-20T21:47:04.827Z,100399.16
2022-09-20T21:49:30.143Z,100405
2022-09-20T21:52:09.670Z,100406.63
2022-09-20T21:54:35.781Z,100408.05
2022-09-20T21:57:18.339Z,100411
2022-09-20T21:59:30.844Z,100412.95
2022-09-20T22:01:51.974Z,100410.84
2022-09-20T22:04:15.824Z,100413.81
2022-09-20T22:06:37.129Z,100416.21
2022-09-20T22:13:38.956Z,100418.05
2022-09-20T22:16:37.148Z,100415.12
2022-09-20T22:23:04.339Z,100424.11
2022-09-20T22:25:39.788Z,100422.98
2022-09-20T22:28:23.291Z,100423.72
2022-09-20T22:33:48.075Z,100422.19
2022-09-20T22:43:03.537Z,100423.13
2022-09-20T23:34:26.434Z,100429.73
2022-09-20T23:40:27.804Z,100428.56
2022-09-20T23:44:45.397Z,100428.43
